Time;durP1;ratioP1;P1;durP2;ratioP2;P2;SDS_P1;SDS_P2;PMS_P1;PMS_P2;Temp;Humidity;BMP_temperature;BMP_pressure;BME280_temperature;BME280_humidity;BME280_pressure;Samples;Min_cycle;Max_cycle;Signal;HPM_P1;HPM_P2
2021/07/15 00:01:57;;;;;;;9.18;4.00;;;;;;;18.52;100.00;100693.72;1729585;82;21506;-54
2021/07/15 00:04:24;;;;;;;5.58;3.95;;;;;;;18.48;100.00;100684.69;1714687;82;21023;-58
2021/07/15 00:06:50;;;;;;;5.20;3.70;;;;;;;18.49;100.00;100689.65;1736493;82;21460;-53
2021/07/15 00:09:19;;;;;;;5.85;3.83;;;;;;;18.48;100.00;100686.08;1734200;82;21022;-58
2021/07/15 00:11:47;;;;;;;7.00;4.10;;;;;;;18.48;100.00;100685.27;1712721;81;21406;-57
2021/07/15 00:14:18;;;;;;;4.45;3.45;;;;;;;18.45;100.00;100684.55;1723522;81;21051;-56
2021/07/15 00:16:53;;;;;;;6.40;3.67;;;;;;;18.42;100.00;100681.86;1707829;82;20982;-56
2021/07/15 00:19:23;;;;;;;5.42;4.00;;;;;;;18.40;100.00;100686.91;1663532;86;21025;-53
2021/07/15 00:21:51;;;;;;;5.22;3.55;;;;;;;18.38;100.00;100682.27;1697647;83;21023;-57
2021/07/15 00:24:18;;;;;;;5.55;3.77;;;;;;;18.36;100.00;100685.11;1671247;84;21026;-53
2021/07/15 00:26:46;;;;;;;4.10;3.27;;;;;;;18.34;100.00;100684.05;1673196;84;21512;-53
2021/07/15 00:29:14;;;;;;;7.45;3.80;;;;;;;18.32;100.00;100684.94;1697693;83;21385;-52
2021/07/15 00:31:43;;;;;;;4.60;3.65;;;;;;;18.31;100.00;100680.55;1684927;82;21031;-53
2021/07/15 00:34:09;;;;;;;6.95;4.03;;;;;;;18.29;100.00;100685.59;1671003;84;21027;-53
2021/07/15 00:36:37;;;;;;;9.03;3.92;;;;;;;18.27;100.00;100679.56;1671200;85;21061;-55
2021/07/15 00:39:06;;;;;;;9.30;5.20;;;;;;;18.24;100.00;100681.03;1690531;82;21000;-53
2021/07/15 00:41:33;;;;;;;6.80;4.30;;;;;;;18.24;100.00;100684.37;1709499;82;21061;-56
2021/07/15 00:44:01;;;;;;;6.47;4.70;;;;;;;18.23;100.00;100678.61;1650617;85;21019;-53
2021/07/15 00:46:29;;;;;;;5.22;4.15;;;;;;;18.19;100.00;100679.81;1670871;85;21528;-57
2021/07/15 00:48:56;;;;;;;8.30;4.05;;;;;;;18.17;100.00;100682.66;1638230;85;21006;-53
2021/07/15 00:51:22;;;;;;;7.20;4.53;;;;;;;18.15;100.00;100676.64;1685131;83;21433;-57
2021/07/15 00:53:49;;;;;;;5.12;4.03;;;;;;;18.14;100.00;100677.78;1665484;85;21077;-53
2021/07/15 00:56:15;;;;;;;7.35;3.83;;;;;;;18.13;100.00;100680.32;1680617;83;21780;-53
2021/07/15 00:58:44;;;;;;;4.15;3.50;;;;;;;18.11;100.00;100675.68;1706685;82;21002;-57
2021/07/15 01:01:10;;;;;;;4.75;3.52;;;;;;;18.07;100.00;100681.61;1702176;83;21066;-57
2021/07/15 01:03:37;;;;;;;6.37;4.15;;;;;;;17.99;100.00;100681.27;1650909;85;20994;-53
2021/07/15 01:06:06;;;;;;;6.40;4.12;;;;;;;17.94;100.00;100684.19;1737356;81;21037;-52
2021/07/15 01:08:32;;;;;;;5.92;3.45;;;;;;;17.89;100.00;100681.58;1700517;84;21003;-53
2021/07/15 01:11:27;;;;;;;7.47;3.45;;;;;;;17.86;100.00;100674.52;1713609;83;21044;-53
2021/07/15 01:14:15;;;;;;;6.40;4.37;;;;;;;17.82;100.00;100675.72;1681010;84;21538;-57
2021/07/15 01:16:58;;;;;;;8.78;4.53;;;;;;;17.79;100.00;100679.91;1732088;81;21047;-56
2021/07/15 01:19:52;;;;;;;6.37;3.58;;;;;;;17.76;100.00;100679.75;1741157;82;20992;-57
2021/07/15 01:22:24;;;;;;;6.17;4.12;;;;;;;17.74;100.00;100679.26;1724807;81;21044;-53
2021/07/15 01:25:42;;;;;;;4.70;3.55;;;;;;;17.72;100.00;100680.14;1742988;80;21043;-53
2021/07/15 01:28:21;;;;;;;5.40;4.00;;;;;;;17.69;100.00;100679.41;1723203;83;21509;-56
2021/07/15 01:30:52;;;;;;;6.42;3.67;;;;;;;17.68;100.00;100677.77;1725796;81;21071;-56
2021/07/15 01:33:21;;;;;;;4.47;3.10;;;;;;;17.65;100.00;100681.18;1688816;83;21043;-56
2021/07/15 01:36:01;;;;;;;5.37;3.42;;;;;;;17.65;100.00;100679.80;1697354;82;21011;-56
2021/07/15 01:38:50;;;;;;;4.28;2.85;;;;;;;17.65;100.00;100677.03;1741603;82;21015;-53
2021/07/15 01:41:24;;;;;;;5.65;3.22;;;;;;;17.66;100.00;100686.97;1718555;82;21008;-53
2021/07/15 01:44:08;;;;;;;5.35;3.17;;;;;;;17.64;100.00;100678.99;1739473;80;21058;-56
2021/07/15 01:46:35;;;;;;;7.20;3.27;;;;;;;17.63;100.00;100679.56;1724394;80;21032;-55
2021/07/15 01:49:03;;;;;;;12.18;3.85;;;;;;;17.61;100.00;100678.26;1688612;84;21003;-53
2021/07/15 01:51:32;;;;;;;5.37;3.58;;;;;;;17.59;100.00;100679.14;1710645;82;21020;-53
2021/07/15 01:53:58;;;;;;;5.60;3.05;;;;;;;17.59;100.00;100686.05;1714877;82;21529;-57
2021/07/15 01:56:24;;;;;;;3.60;2.75;;;;;;;17.56;100.00;100686.12;1741616;82;21473;-53
2021/07/15 01:58:51;;;;;;;4.58;3.35;;;;;;;17.56;100.00;100693.61;1742509;80;21039;-53
2021/07/15 02:01:18;;;;;;;4.42;3.15;;;;;;;17.54;100.00;100684.81;1737654;81;21533;-54
2021/07/15 02:03:52;;;;;;;5.78;2.87;;;;;;;17.51;100.00;100682.13;1714937;82;21050;-53
2021/07/15 02:06:19;;;;;;;4.00;3.00;;;;;;;17.49;100.00;100678.06;1755082;81;21446;-56
2021/07/15 02:08:46;;;;;;;3.33;2.30;;;;;;;17.49;100.00;100683.02;1755154;80;21071;-53
2021/07/15 02:11:13;;;;;;;3.67;2.98;;;;;;;17.50;100.00;100679.10;1755128;80;21055;-55
2021/07/15 02:13:41;;;;;;;6.15;3.22;;;;;;;17.47;100.00;100675.61;1723372;82;21483;-53
2021/07/15 02:16:08;;;;;;;2.52;2.30;;;;;;;17.47;100.00;100678.37;1742305;81;21531;-53
2021/07/15 02:18:34;;;;;;;5.62;3.25;;;;;;;17.45;100.00;100683.39;1741306;82;21054;-53
2021/07/15 02:21:00;;;;;;;3.35;2.67;;;;;;;17.45;100.00;100683.97;1712055;81;21044;-53
2021/07/15 02:23:29;;;;;;;4.33;3.37;;;;;;;17.45;100.00;100687.54;1724676;81;21595;-55
2021/07/15 02:25:56;;;;;;;6.87;3.37;;;;;;;17.45;100.00;100685.34;1704413;83;21114;-53
2021/07/15 02:28:24;;;;;;;6.53;3.60;;;;;;;17.46;100.00;100685.04;1656901;84;21077;-53
2021/07/15 02:30:55;;;;;;;9.78;3.10;;;;;;;17.48;100.00;100683.32;1707755;82;21043;-54
2021/07/15 02:33:24;;;;;;;6.58;2.85;;;;;;;17.49;100.00;100685.77;1719711;81;21067;-53
2021/07/15 02:35:53;;;;;;;3.87;2.52;;;;;;;17.51;100.00;100685.47;1661845;86;21053;-55
2021/07/15 02:38:26;;;;;;;4.78;3.17;;;;;;;17.53;100.00;100688.70;1693369;83;21048;-54
2021/07/15 02:40:52;;;;;;;4.70;2.52;;;;;;;17.56;100.00;100690.27;1645756;83;21140;-53
2021/07/15 02:43:20;;;;;;;6.67;3.50;;;;;;;17.59;100.00;100689.62;1706644;83;21166;-54
2021/07/15 02:45:49;;;;;;;3.72;2.95;;;;;;;17.65;100.00;100688.09;1680191;83;21436;-53
2021/07/15 02:48:17;;;;;;;3.25;2.55;;;;;;;17.69;100.00;100692.66;1722642;80;21027;-55
2021/07/15 02:50:43;;;;;;;7.22;3.40;;;;;;;17.73;100.00;100699.72;1727200;81;21066;-55
2021/07/15 02:53:10;;;;;;;4.78;3.17;;;;;;;17.78;100.00;100702.36;1748074;81;21015;-56
2021/07/15 02:55:39;;;;;;;5.15;3.27;;;;;;;17.84;100.00;100700.52;1713768;80;21047;-52
2021/07/15 02:58:14;;;;;;;7.40;3.58;;;;;;;17.91;100.00;100701.43;1712291;82;21000;-52
2021/07/15 03:01:01;;;;;;;5.45;2.83;;;;;;;17.98;100.00;100705.92;1736237;81;21520;-52
2021/07/15 03:04:10;;;;;;;5.22;2.55;;;;;;;18.07;100.00;100706.49;1738982;82;21031;-55
2021/07/15 03:06:41;;;;;;;4.08;2.67;;;;;;;18.16;100.00;100704.55;1720644;80;20976;-56
2021/07/15 03:09:13;;;;;;;4.72;3.20;;;;;;;18.25;100.00;100707.57;1728326;81;21023;-56
2021/07/15 03:11:51;;;;;;;4.17;3.17;;;;;;;18.34;100.00;100702.02;1738251;82;21019;-56
2021/07/15 03:14:18;;;;;;;6.97;3.83;;;;;;;18.41;100.00;100698.20;1735181;80;21000;-56
2021/07/15 03:16:45;;;;;;;5.35;3.00;;;;;;;18.51;100.00;100698.44;1691171;82;21020;-56
2021/07/15 03:19:14;;;;;;;5.35;3.05;;;;;;;18.64;100.00;100706.31;1721817;82;21014;-52
2021/07/15 03:21:42;;;;;;;5.30;3.42;;;;;;;18.76;100.00;100701.53;1741438;81;21516;-56
2021/07/15 03:24:13;;;;;;;4.78;3.10;;;;;;;18.86;100.00;100703.38;1700918;82;20994;-52
2021/07/15 03:26:40;;;;;;;5.05;3.35;;;;;;;18.98;100.00;100705.47;1734000;82;20926;-56
2021/07/15 03:29:08;;;;;;;4.42;3.15;;;;;;;19.13;100.00;100704.93;1695710;83;21019;-52
2021/07/15 03:31:35;;;;;;;5.62;3.75;;;;;;;19.28;100.00;100707.73;1695615;83;21392;-56
2021/07/15 03:34:03;;;;;;;7.05;4.00;;;;;;;19.52;100.00;100703.56;1688123;83;21481;-55
2021/07/15 03:36:32;;;;;;;6.30;3.95;;;;;;;19.52;100.00;100703.56;1741472;82;21030;-52
2021/07/15 03:38:58;;;;;;;6.15;3.70;;;;;;;19.63;100.00;100710.34;1722140;82;21485;-52
2021/07/15 03:41:24;;;;;;;6.28;4.03;;;;;;;19.73;100.00;100710.56;1738213;82;21027;-57
2021/07/15 03:43:51;;;;;;;4.37;3.83;;;;;;;19.87;100.00;100706.17;1721816;82;21086;-52
2021/07/15 03:46:19;;;;;;;5.67;3.58;;;;;;;19.97;100.00;100707.97;1692736;82;21027;-52
2021/07/15 03:48:46;;;;;;;5.97;3.27;;;;;;;20.08;100.00;100703.41;1675393;85;21020;-55
2021/07/15 03:51:14;;;;;;;4.90;3.15;;;;;;;20.19;99.77;100707.41;1656744;83;21031;-53
2021/07/15 03:53:44;;;;;;;4.70;3.33;;;;;;;20.30;99.41;100707.81;1714271;80;21015;-52
2021/07/15 03:56:13;;;;;;;3.98;2.72;;;;;;;20.41;98.90;100714.59;1772131;79;20967;-52
2021/07/15 03:58:44;;;;;;;4.67;3.70;;;;;;;20.53;98.55;100714.64;1735606;80;21494;-52
2021/07/15 04:01:11;;;;;;;5.35;3.22;;;;;;;20.64;97.95;100713.67;1688118;83;21023;-56
2021/07/15 04:03:38;;;;;;;8.90;2.77;;;;;;;20.76;97.41;100710.13;1729938;81;21043;-57
2021/07/15 04:06:05;;;;;;;5.42;3.30;;;;;;;20.90;96.97;100709.26;1688450;83;21502;-55
2021/07/15 04:08:37;;;;;;;5.90;3.72;;;;;;;21.03;96.73;100710.90;1711804;82;21032;-56
2021/07/15 04:11:03;;;;;;;3.65;3.10;;;;;;;21.17;96.44;100705.62;1711555;82;21042;-56
2021/07/15 04:13:31;;;;;;;4.05;3.27;;;;;;;21.29;95.96;100708.41;1719952;81;21003;-56
2021/07/15 04:16:45;;;;;;;4.97;3.22;;;;;;;21.41;95.26;100706.23;1689687;83;21056;-56
2021/07/15 04:19:13;;;;;;;5.17;4.00;;;;;;;21.52;94.54;100701.04;1658114;85;21596;-53
2021/07/15 04:21:41;;;;;;;5.12;3.52;;;;;;;21.68;93.62;100699.16;1752087;80;21017;-53
2021/07/15 04:24:08;;;;;;;4.28;2.87;;;;;;;21.82;93.37;100701.59;1689319;83;20950;-56
2021/07/15 04:26:34;;;;;;;4.42;2.92;;;;;;;21.98;93.05;100708.63;1685396;83;21455;-53
2021/07/15 04:29:02;;;;;;;6.45;3.20;;;;;;;22.11;92.61;100706.88;1688030;83;21054;-53
2021/07/15 04:32:17;;;;;;;5.80;3.80;;;;;;;22.26;93.17;100703.97;1739926;82;21030;-53
2021/07/15 04:34:44;;;;;;;5.62;3.47;;;;;;;22.39;92.76;100702.54;1754822;80;20982;-53
2021/07/15 04:37:11;;;;;;;4.28;3.42;;;;;;;22.55;93.07;100692.25;1730570;82;21014;-53
2021/07/15 04:39:38;;;;;;;5.85;3.52;;;;;;;22.69;92.81;100689.87;1742133;80;20999;-53
2021/07/15 04:42:05;;;;;;;7.17;3.72;;;;;;;22.83;92.61;100688.66;1713865;83;21030;-53
2021/07/15 04:44:33;;;;;;;4.92;3.35;;;;;;;22.99;91.74;100688.11;1696648;83;21414;-53
2021/07/15 04:47:01;;;;;;;5.55;3.08;;;;;;;23.18;90.48;100686.82;1703344;81;21006;-55
2021/07/15 04:49:30;;;;;;;7.85;2.80;;;;;;;23.39;89.40;100683.77;1692909;83;21499;-53
2021/07/15 04:51:57;;;;;;;4.10;2.58;;;;;;;23.60;87.71;100691.03;1731357;80;21068;-54
2021/07/15 04:54:24;;;;;;;4.08;2.75;;;;;;;23.82;86.40;100690.98;1738764;80;21003;-55
2021/07/15 04:56:50;;;;;;;4.10;2.58;;;;;;;24.02;84.02;100691.23;1739822;80;21062;-53
2021/07/15 04:59:19;;;;;;;3.90;2.52;;;;;;;24.26;81.50;100686.56;1679323;84;21557;-54
2021/07/15 05:01:45;;;;;;;3.15;2.47;;;;;;;24.49;79.33;100697.03;1679006;83;21052;-54
2021/07/15 05:04:12;;;;;;;5.50;3.22;;;;;;;24.68;77.37;100695.63;1737530;80;21565;-54
2021/07/15 05:06:39;;;;;;;3.72;2.55;;;;;;;24.87;78.31;100695.56;1726081;82;20998;-53
2021/07/15 05:09:06;;;;;;;6.53;2.77;;;;;;;25.04;77.79;100690.68;1722828;82;21041;-55
2021/07/15 05:11:33;;;;;;;4.53;2.80;;;;;;;25.16;77.62;100687.70;1691031;83;21025;-53
2021/07/15 05:14:02;;;;;;;4.30;2.50;;;;;;;25.31;76.73;100693.78;1694007;82;21041;-42
2021/07/15 05:16:30;;;;;;;3.15;2.45;;;;;;;25.47;75.69;100690.03;1707954;82;21021;-42
2021/07/15 05:18:57;;;;;;;3.20;2.17;;;;;;;25.66;72.79;100692.73;1716883;83;20980;-49
2021/07/15 05:21:23;;;;;;;3.47;2.22;;;;;;;25.90;69.61;100696.33;1693850;83;21010;-46
2021/07/15 05:23:50;;;;;;;6.20;2.37;;;;;;;26.10;67.11;100696.40;1747890;82;21325;-42
2021/07/15 05:26:16;;;;;;;2.22;2.02;;;;;;;26.33;66.04;100699.69;1728734;82;20878;-50
2021/07/15 05:28:43;;;;;;;2.70;1.95;;;;;;;26.49;63.46;100693.89;1720012;82;21034;-43
2021/07/15 05:31:11;;;;;;;3.45;2.00;;;;;;;26.66;63.85;100688.32;1716756;82;21013;-43
2021/07/15 05:33:37;;;;;;;3.47;2.40;;;;;;;26.86;65.04;100690.33;1718354;83;21022;-49
2021/07/15 05:36:03;;;;;;;4.17;2.45;;;;;;;27.01;65.31;100691.48;1659293;86;20978;-49
2021/07/15 05:38:31;;;;;;;3.42;2.20;;;;;;;27.16;64.49;100692.42;1693263;84;20989;-42
2021/07/15 05:40:57;;;;;;;2.67;2.00;;;;;;;27.28;63.65;100691.36;1721399;83;21369;-42
2021/07/15 05:43:23;;;;;;;3.95;2.10;;;;;;;27.39;62.72;100688.03;1721204;83;21471;-43
2021/07/15 05:45:50;;;;;;;1.95;1.75;;;;;;;27.51;62.10;100689.73;1698736;83;21032;-42
2021/07/15 05:48:18;;;;;;;3.52;2.37;;;;;;;27.63;61.66;100690.02;1721370;83;21410;-42
2021/07/15 05:50:44;;;;;;;3.47;2.17;;;;;;;27.75;61.47;100685.50;1698576;83;21100;-49
2021/07/15 05:53:11;;;;;;;3.72;2.58;;;;;;;27.90;61.76;100680.00;1715432;83;21029;-43
2021/07/15 05:55:37;;;;;;;2.30;1.85;;;;;;;28.03;61.29;100684.08;1719899;82;20994;-49
2021/07/15 05:58:03;;;;;;;3.52;2.10;;;;;;;28.13;59.71;100681.91;1719875;83;21381;-42
2021/07/15 06:00:30;;;;;;;3.60;2.05;;;;;;;28.22;59.59;100675.95;1719996;83;21019;-50
2021/07/15 06:02:56;;;;;;;4.58;2.25;;;;;;;28.35;59.60;100672.19;1733130;81;20994;-49
2021/07/15 06:05:23;;;;;;;2.77;2.20;;;;;;;28.51;59.22;100674.06;1751525;81;21037;-43
2021/07/15 06:07:52;;;;;;;2.95;2.02;;;;;;;28.63;58.52;100670.87;1749036;80;21455;-42
2021/07/15 06:10:19;;;;;;;4.72;2.27;;;;;;;28.74;58.18;100675.14;1720814;83;21466;-49
2021/07/15 06:12:45;;;;;;;2.83;1.77;;;;;;;28.87;57.82;100670.73;1720801;82;21013;-42
2021/07/15 06:15:12;;;;;;;3.85;2.20;;;;;;;29.02;57.39;100669.35;1721341;83;21772;-49
2021/07/15 06:17:39;;;;;;;3.98;2.52;;;;;;;29.15;56.06;100677.04;1724453;81;21498;-49
2021/07/15 06:20:12;;;;;;;2.80;2.17;;;;;;;29.29;56.15;100675.42;1729387;82;21028;-49
2021/07/15 06:22:44;;;;;;;2.50;1.77;;;;;;;29.44;56.46;100678.42;1729175;81;21494;-49
2021/07/15 06:25:12;;;;;;;2.35;2.00;;;;;;;29.57;56.39;100674.01;1729308;83;21017;-43
2021/07/15 06:27:41;;;;;;;3.55;2.25;;;;;;;29.76;54.70;100673.39;1728829;81;20993;-49
2021/07/15 06:30:10;;;;;;;2.62;2.27;;;;;;;29.86;53.58;100672.55;1729460;82;21503;-49
2021/07/15 06:32:36;;;;;;;4.72;2.35;;;;;;;29.96;53.04;100670.92;1729387;81;21000;-44
2021/07/15 06:35:04;;;;;;;2.75;1.90;;;;;;;30.04;53.74;100665.45;1729466;82;21429;-43
2021/07/15 06:37:36;;;;;;;2.85;2.10;;;;;;;30.18;52.73;100661.79;1729315;81;21533;-49
2021/07/15 06:40:05;;;;;;;3.22;2.27;;;;;;;30.23;50.56;100656.52;1729421;82;21485;-49
2021/07/15 06:42:33;;;;;;;1.95;1.75;;;;;;;30.30;50.42;100662.77;1729259;81;21601;-42
2021/07/15 06:44:59;;;;;;;3.08;2.05;;;;;;;30.40;51.45;100657.69;1729615;82;21486;-49
2021/07/15 06:47:27;;;;;;;2.72;1.50;;;;;;;30.56;50.67;100656.39;1729315;81;21430;-49
2021/07/15 06:49:54;;;;;;;2.15;1.85;;;;;;;30.73;49.90;100658.91;1729193;83;21046;-41
2021/07/15 06:52:20;;;;;;;2.40;1.67;;;;;;;30.89;49.31;100659.86;1729189;81;21048;-43
2021/07/15 06:54:46;;;;;;;4.85;2.15;;;;;;;31.00;45.37;100652.89;1729323;83;21067;-49
2021/07/15 06:57:12;;;;;;;2.02;1.70;;;;;;;31.07;45.60;100654.87;1698564;83;21053;-43
2021/07/15 06:59:42;;;;;;;2.47;1.80;;;;;;;31.11;45.42;100647.19;1729359;83;21013;-42
2021/07/15 07:02:08;;;;;;;2.20;1.80;;;;;;;31.17;43.84;100653.97;1729344;81;21024;-49
2021/07/15 07:04:35;;;;;;;2.83;1.95;;;;;;;31.22;43.43;100646.47;1729239;83;21048;-50
2021/07/15 07:07:03;;;;;;;5.12;2.80;;;;;;;31.27;46.55;100654.48;1729428;81;21017;-42
2021/07/15 07:09:29;;;;;;;3.35;2.55;;;;;;;31.33;49.76;100651.21;1729358;83;21479;-45
2021/07/15 07:11:56;;;;;;;3.47;2.12;;;;;;;31.35;51.91;100653.81;1729213;81;21044;-41
2021/07/15 07:14:22;;;;;;;3.25;2.12;;;;;;;31.26;50.68;100651.48;1729418;83;21013;-49
2021/07/15 07:16:50;;;;;;;2.27;2.00;;;;;;;31.21;49.38;100653.96;1729099;81;21021;-43
2021/07/15 07:19:16;;;;;;;2.72;2.10;;;;;;;31.26;50.75;100650.69;1729417;81;21108;-42
2021/07/15 07:21:43;;;;;;;3.95;2.70;;;;;;;31.33;51.27;100654.03;1729242;81;21017;-42
2021/07/15 07:24:10;;;;;;;2.33;2.12;;;;;;;31.31;52.31;100654.47;1729464;83;21029;-49
2021/07/15 07:26:36;;;;;;;3.20;2.58;;;;;;;31.32;52.18;100653.86;1729249;81;21020;-43
2021/07/15 07:29:05;;;;;;;8.98;3.10;;;;;;;31.35;53.65;100647.37;1729308;83;20996;-49
2021/07/15 07:31:33;;;;;;;3.45;2.20;;;;;;;31.43;54.01;100648.92;1729146;81;21025;-44
2021/07/15 07:34:00;;;;;;;4.35;2.20;;;;;;;31.53;52.03;100643.81;1729306;83;21063;-50
2021/07/15 07:36:26;;;;;;;3.62;2.60;;;;;;;31.60;50.42;100641.50;1729379;81;21061;-49
2021/07/15 07:38:53;;;;;;;3.77;2.75;;;;;;;31.67;51.33;100642.22;1729271;83;20993;-44
2021/07/15 07:41:19;;;;;;;3.45;2.72;;;;;;;31.69;51.67;100647.47;1728850;81;21040;-49
2021/07/15 07:43:45;;;;;;;4.70;2.70;;;;;;;31.61;51.20;100640.30;1729225;82;21438;-49
2021/07/15 07:46:13;;;;;;;3.15;2.62;;;;;;;31.51;51.78;100647.66;1729127;81;21024;-42
2021/07/15 07:48:40;;;;;;;2.83;2.50;;;;;;;31.46;52.69;100643.87;1729313;83;21680;-42
2021/07/15 07:51:06;;;;;;;2.90;2.17;;;;;;;31.41;51.30;100644.33;1729248;81;21004;-43
2021/07/15 07:53:35;;;;;;;3.27;1.80;;;;;;;31.36;52.73;100640.52;1729424;82;20905;-49
2021/07/15 07:56:02;;;;;;;2.98;2.17;;;;;;;31.35;53.69;100647.37;1729359;81;21444;-49
2021/07/15 07:58:30;;;;;;;3.08;2.12;;;;;;;31.44;52.21;100643.48;1696700;84;20982;-43
2021/07/15 08:00:56;;;;;;;3.75;2.60;;;;;;;31.53;52.19;100635.34;1729509;81;21584;-42
2021/07/15 08:03:22;;;;;;;2.83;1.92;;;;;;;31.59;51.94;100634.27;1729229;83;21053;-49
2021/07/15 08:05:50;;;;;;;3.70;2.05;;;;;;;31.67;51.55;100636.58;1729312;81;21367;-49
2021/07/15 08:08:18;;;;;;;3.17;2.10;;;;;;;31.70;49.66;100636.34;1729151;83;21446;-42
2021/07/15 08:10:44;;;;;;;2.52;1.87;;;;;;;31.69;51.45;100636.96;1729166;81;21040;-50
2021/07/15 08:13:11;;;;;;;4.35;2.95;;;;;;;31.68;50.71;100639.61;1729341;83;20937;-42
2021/07/15 08:15:37;;;;;;;1.75;1.60;;;;;;;31.66;49.75;100640.63;1729281;81;21462;-49
2021/07/15 08:18:05;;;;;;;2.55;1.67;;;;;;;31.63;50.25;100635.83;1732047;81;21008;-42
2021/07/15 08:20:33;;;;;;;3.77;2.00;;;;;;;31.67;49.38;100633.75;1739328;82;21381;-43
2021/07/15 08:22:59;;;;;;;2.90;1.57;;;;;;;31.70;47.97;100630.11;1739116;82;21074;-50
2021/07/15 08:25:26;;;;;;;2.22;1.90;;;;;;;31.76;47.97;100631.05;1739392;82;21517;-50
2021/07/15 08:27:52;;;;;;;2.02;1.75;;;;;;;31.87;49.00;100630.31;1688034;83;21361;-50
2021/07/15 08:30:20;;;;;;;4.70;1.98;;;;;;;32.03;48.13;100627.73;1736246;82;21441;-50
2021/07/15 08:32:46;;;;;;;4.95;1.70;;;;;;;32.19;48.76;100622.08;1703582;82;20987;-44
2021/07/15 08:35:13;;;;;;;3.22;1.32;;;;;;;32.26;48.16;100622.78;1692948;84;21097;-50
2021/07/15 08:37:40;;;;;;;3.02;1.92;;;;;;;32.29;45.89;100616.89;1736097;81;21017;-49
2021/07/15 08:40:08;;;;;;;3.33;2.15;;;;;;;32.27;46.91;100612.27;1736323;82;21900;-49
2021/07/15 08:42:38;;;;;;;3.72;2.12;;;;;;;32.22;46.88;100617.80;1736229;81;21007;-50
2021/07/15 08:45:07;;;;;;;2.52;1.70;;;;;;;32.21;48.44;100616.19;1736256;82;21078;-44
2021/07/15 08:47:37;;;;;;;4.50;2.50;;;;;;;32.30;48.48;100622.12;1703705;82;20989;-43
2021/07/15 08:50:05;;;;;;;5.33;2.80;;;;;;;32.47;47.08;100620.28;1693318;84;21025;-43
2021/07/15 08:52:34;;;;;;;4.25;2.40;;;;;;;32.56;47.78;100621.97;1736189;81;21015;-42
2021/07/15 08:55:16;;;;;;;5.83;2.05;;;;;;;32.62;46.34;100613.00;1736256;82;21059;-50
2021/07/15 08:57:29;;;;;;;3.30;2.10;;;;;;;32.60;45.12;100617.69;1700407;82;21443;-45
2021/07/15 08:59:56;;;;;;;2.05;1.42;;;;;;;32.66;46.60;100614.55;1693364;84;21009;-42
2021/07/15 09:02:22;;;;;;;1.90;1.50;;;;;;;32.71;44.55;100611.23;1736171;81;21034;-50
2021/07/15 09:04:49;;;;;;;2.10;1.65;;;;;;;32.80;46.06;100616.37;1736294;82;21003;-50
2021/07/15 09:07:16;;;;;;;3.37;1.37;;;;;;;32.94;44.08;100604.83;1736103;81;21031;-42
2021/07/15 09:09:45;;;;;;;1.77;1.30;;;;;;;33.00;43.71;100605.12;1717481;82;20999;-43
2021/07/15 09:12:15;;;;;;;2.33;1.50;;;;;;;32.93;44.52;100608.87;1736267;81;21091;-43
2021/07/15 09:14:49;;;;;;;1.80;1.40;;;;;;;32.95;44.42;100608.45;1736444;82;20992;-50
2021/07/15 09:17:18;;;;;;;1.85;1.30;;;;;;;33.01;43.12;100605.92;1736349;81;21016;-50
2021/07/15 09:19:46;;;;;;;3.58;1.40;;;;;;;33.05;43.46;100606.70;1687005;85;21436;-42
2021/07/15 09:22:14;;;;;;;2.90;1.87;;;;;;;33.12;42.99;100603.75;1645541;85;21033;-50
2021/07/15 09:24:46;;;;;;;2.60;1.60;;;;;;;33.20;43.64;100612.30;1688160;85;21515;-50
2021/07/15 09:27:24;;;;;;;1.85;1.52;;;;;;;33.23;42.94;100612.05;1687901;83;20998;-44
2021/07/15 09:30:13;;;;;;;2.80;1.70;;;;;;;33.24;43.14;100613.04;1688126;85;21018;-50
2021/07/15 09:33:01;;;;;;;4.35;2.40;;;;;;;33.39;44.11;100608.71;1687971;83;21002;-50
2021/07/15 09:35:39;;;;;;;5.65;3.12;;;;;;;33.56;43.10;100603.19;1688070;85;21374;-42
2021/07/15 09:38:20;;;;;;;7.45;4.05;;;;;;;33.68;42.75;100609.63;1688186;84;21026;-50
2021/07/15 09:40:56;;;;;;;7.80;4.15;;;;;;;33.72;42.08;100613.16;1687983;83;21502;-44
2021/07/15 09:43:28;;;;;;;5.10;3.15;;;;;;;33.57;40.36;100603.35;1688277;85;21355;-50
2021/07/15 09:46:03;;;;;;;9.05;3.65;;;;;;;33.43;41.97;100607.22;1688123;83;21448;-43
2021/07/15 09:48:31;;;;;;;8.33;3.80;;;;;;;33.40;41.80;100612.34;1683856;85;21058;-50
2021/07/15 09:50:59;;;;;;;6.40;2.95;;;;;;;33.36;41.62;100609.59;1688062;83;21033;-51
2021/07/15 09:53:28;;;;;;;4.42;3.00;;;;;;;33.31;42.26;100605.84;1688037;85;21006;-43
2021/07/15 09:56:06;;;;;;;4.67;2.70;;;;;;;33.29;41.79;100604.67;1688077;83;21006;-51
2021/07/15 09:58:41;;;;;;;3.85;2.27;;;;;;;33.25;40.32;100601.09;1688123;85;21010;-50
2021/07/15 10:01:10;;;;;;;1.77;1.50;;;;;;;33.17;41.04;100599.01;1688147;83;21056;-51
2021/07/15 10:03:40;;;;;;;2.67;2.02;;;;;;;33.16;40.53;100598.80;1688279;85;20986;-51
2021/07/15 10:06:07;;;;;;;2.62;2.05;;;;;;;33.16;41.61;100601.64;1687690;83;21022;-43
2021/07/15 10:08:35;;;;;;;3.85;2.02;;;;;;;33.22;41.26;100607.00;1688420;85;21041;-51
2021/07/15 10:11:17;;;;;;;2.15;1.45;;;;;;;33.28;40.55;100599.59;1688005;83;21515;-43
2021/07/15 10:13:46;;;;;;;1.15;1.02;;;;;;;33.28;41.02;100602.43;1688609;85;21381;-50
2021/07/15 10:16:15;;;;;;;;;;;;;;;33.30;40.89;100595.72;1688251;83;21010;-50
2021/07/15 10:18:48;;;;;;;3.17;1.50;;;;;;;33.31;40.04;100607.25;1703493;82;20183;-51
2021/07/15 10:21:14;;;;;;;2.47;1.37;;;;;;;33.28;40.58;100605.27;1741087;81;20999;-42
2021/07/15 10:23:44;;;;;;;1.35;1.07;;;;;;;33.24;39.58;100599.50;1741462;82;21870;-50
2021/07/15 10:26:11;;;;;;;2.40;1.60;;;;;;;33.14;39.01;100595.02;1741108;81;21654;-42
2021/07/15 10:28:45;;;;;;;1.25;1.10;;;;;;;33.07;39.15;100598.59;1741418;82;20991;-50
2021/07/15 10:31:12;;;;;;;1.50;1.10;;;;;;;33.00;40.69;100593.80;1741087;81;21000;-42
2021/07/15 10:33:44;;;;;;;2.62;1.55;;;;;;;33.06;41.03;100587.88;1741306;82;20975;-51
2021/07/15 10:36:10;;;;;;;2.58;2.00;;;;;;;33.16;39.86;100598.80;1741106;81;21019;-50
2021/07/15 10:38:42;;;;;;;2.52;1.90;;;;;;;33.21;39.51;100588.43;1741553;82;21508;-43
2021/07/15 10:41:09;;;;;;;1.00;0.80;;;;;;;33.30;38.11;100592.10;1741049;81;21569;-43
2021/07/15 10:43:36;;;;;;;1.22;1.05;;;;;;;33.34;39.28;100589.39;1741577;82;21397;-43
2021/07/15 10:46:04;;;;;;;1.32;1.20;;;;;;;33.41;38.92;100584.22;1741319;81;20983;-42
2021/07/15 10:48:34;;;;;;;1.47;1.20;;;;;;;33.49;38.16;100589.13;1741460;82;21051;-44
2021/07/15 10:51:04;;;;;;;1.85;1.17;;;;;;;33.56;37.33;100586.19;1741365;81;21059;-50
2021/07/15 10:53:34;;;;;;;2.92;1.20;;;;;;;33.50;37.42;100585.84;1741268;82;21011;-44
2021/07/15 10:56:02;;;;;;;1.15;1.00;;;;;;;33.52;39.13;100582.59;1741274;81;21026;-44
2021/07/15 10:58:49;;;;;;;1.87;1.10;;;;;;;33.64;39.49;100583.38;1688085;85;20994;-50
2021/07/15 11:01:40;;;;;;;1.40;0.82;;;;;;;33.82;39.07;100580.97;1741126;81;21134;-51
2021/07/15 11:04:14;;;;;;;1.07;0.95;;;;;;;33.97;37.90;100587.77;1721483;82;22537;-50
2021/07/15 11:06:45;;;;;;;1.95;1.10;;;;;;;34.01;36.31;100589.29;1718189;82;21339;-43
2021/07/15 11:09:33;;;;;;;1.15;0.90;;;;;;;33.95;35.19;100585.39;1700263;82;21479;-50
2021/07/15 11:12:05;;;;;;;1.15;0.90;;;;;;;33.74;34.51;100582.36;1690576;84;21567;-50
2021/07/15 11:14:46;;;;;;;1.67;0.95;;;;;;;33.49;37.08;100583.46;1722647;82;21019;-51
2021/07/15 11:17:29;;;;;;;1.00;0.90;;;;;;;33.43;36.31;100578.89;1737834;80;21035;-50
2021/07/15 11:20:11;;;;;;;1.17;1.00;;;;;;;33.38;38.21;100581.64;1745740;80;20983;-43
2021/07/15 11:22:50;;;;;;;1.37;1.20;;;;;;;33.43;37.02;100577.48;1734262;81;21420;-50
2021/07/15 11:25:33;;;;;;;1.25;0.82;;;;;;;33.39;36.40;100567.65;1749592;80;21017;-50
2021/07/15 11:28:17;;;;;;;0.85;0.85;;;;;;;33.41;36.57;100563.77;1772662;80;20986;-50
2021/07/15 11:30:52;;;;;;;1.02;0.93;;;;;;;33.58;37.33;100572.36;1772029;79;21033;-50
2021/07/15 11:33:27;;;;;;;1.05;0.90;;;;;;;33.84;37.50;100571.42;1768979;80;21071;-44
2021/07/15 11:36:11;;;;;;;1.20;0.80;;;;;;;34.09;35.78;100563.66;1738231;80;21627;-50